sensor_id;sensor_type;location;lat;lon;timestamp;pressure;altitude;pressure_sealevel;temperature;humidity
26775;BME280;14362;51.902;7.626;2022-12-29T00:01:40;99585.91;;;10.01;100.00
26775;BME280;14362;51.902;7.626;2022-12-29T00:05:41;99579.19;;;10.02;100.00
26775;BME280;14362;51.902;7.626;2022-12-29T00:09:43;99563.41;;;10.06;100.00
26775;BME280;14362;51.902;7.626;2022-12-29T00:13:46;99573.06;;;10.09;100.00
26775;BME280;14362;51.902;7.626;2022-12-29T00:18:05;99569.44;;;10.08;100.00
26775;BME280;14362;51.902;7.626;2022-12-29T00:22:09;99565.88;;;10.08;100.00
26775;BME280;14362;51.902;7.626;2022-12-29T00:26:28;99572.69;;;10.10;100.00
26775;BME280;14362;51.902;7.626;2022-12-29T00:30:49;99562.13;;;10.16;100.00
26775;BME280;14362;51.902;7.626;2022-12-29T00:35:06;99550.53;;;10.14;100.00
26775;BME280;14362;51.902;7.626;2022-12-29T00:39:13;99540.91;;;10.11;100.00
26775;BME280;14362;51.902;7.626;2022-12-29T00:43:33;99548.56;;;10.14;100.00
26775;BME280;14362;51.902;7.626;2022-12-29T00:48:02;99533.34;;;10.23;100.00
26775;BME280;14362;51.902;7.626;2022-12-29T00:52:05;99545.66;;;10.22;100.00
26775;BME280;14362;51.902;7.626;2022-12-29T00:56:07;99525.09;;;10.27;100.00
26775;BME280;14362;51.902;7.626;2022-12-29T01:00:09;99528.13;;;10.34;100.00
26775;BME280;14362;51.902;7.626;2022-12-29T01:04:12;99526.25;;;10.26;100.00
26775;BME280;14362;51.902;7.626;2022-12-29T01:08:14;99522.69;;;10.25;100.00
26775;BME280;14362;51.902;7.626;2022-12-29T01:12:15;99518.75;;;10.15;100.00
26775;BME280;14362;51.902;7.626;2022-12-29T01:16:17;99528.63;;;10.12;100.00
26775;BME280;14362;51.902;7.626;2022-12-29T01:20:19;99516.91;;;10.07;100.00
26775;BME280;14362;51.902;7.626;2022-12-29T01:24:21;99498.03;;;10.00;100.00
26775;BME280;14362;51.902;7.626;2022-12-29T01:28:23;99494.06;;;10.01;100.00
26775;BME280;14362;51.902;7.626;2022-12-29T01:32:24;99488.47;;;10.01;100.00
26775;BME280;14362;51.902;7.626;2022-12-29T01:36:27;99487.78;;;10.04;100.00
26775;BME280;14362;51.902;7.626;2022-12-29T01:40:29;99484.66;;;10.06;100.00
26775;BME280;14362;51.902;7.626;2022-12-29T01:44:57;99480.03;;;10.10;100.00
26775;BME280;14362;51.902;7.626;2022-12-29T01:49:05;99478.59;;;10.16;100.00
26775;BME280;14362;51.902;7.626;2022-12-29T01:53:16;99474.19;;;10.15;100.00
26775;BME280;14362;51.902;7.626;2022-12-29T01:57:21;99462.72;;;10.16;100.00
26775;BME280;14362;51.902;7.626;2022-12-29T02:01:25;99461.91;;;10.16;100.00
26775;BME280;14362;51.902;7.626;2022-12-29T02:05:32;99461.28;;;10.22;100.00
26775;BME280;14362;51.902;7.626;2022-12-29T02:09:36;99461.56;;;10.17;100.00
26775;BME280;14362;51.902;7.626;2022-12-29T02:13:37;99458.88;;;10.20;100.00
26775;BME280;14362;51.902;7.626;2022-12-29T02:17:53;99462.13;;;10.22;100.00
26775;BME280;14362;51.902;7.626;2022-12-29T02:22:09;99456.66;;;10.26;100.00
26775;BME280;14362;51.902;7.626;2022-12-29T02:26:33;99459.91;;;10.28;100.00
26775;BME280;14362;51.902;7.626;2022-12-29T02:30:42;99452.78;;;10.30;100.00
26775;BME280;14362;51.902;7.626;2022-12-29T02:34:49;99431.34;;;10.31;100.00
26775;BME280;14362;51.902;7.626;2022-12-29T02:38:59;99432.34;;;10.38;100.00
26775;BME280;14362;51.902;7.626;2022-12-29T02:43:19;99449.44;;;10.37;100.00
26775;BME280;14362;51.902;7.626;2022-12-29T02:47:30;99442.78;;;10.41;100.00
26775;BME280;14362;51.902;7.626;2022-12-29T02:51:37;99441.72;;;10.46;100.00
26775;BME280;14362;51.902;7.626;2022-12-29T02:55:47;99436.69;;;10.51;100.00
26775;BME280;14362;51.902;7.626;2022-12-29T02:59:51;99439.09;;;10.65;100.00
26775;BME280;14362;51.902;7.626;2022-12-29T03:04:04;99435.78;;;10.75;100.00
26775;BME280;14362;51.902;7.626;2022-12-29T03:08:16;99430.31;;;10.78;100.00
26775;BME280;14362;51.902;7.626;2022-12-29T03:12:25;99422.50;;;10.84;100.00
26775;BME280;14362;51.902;7.626;2022-12-29T03:16:50;99412.50;;;10.83;100.00
26775;BME280;14362;51.902;7.626;2022-12-29T03:21:02;99408.19;;;10.85;100.00
26775;BME280;14362;51.902;7.626;2022-12-29T03:25:10;99417.19;;;10.94;100.00
26775;BME280;14362;51.902;7.626;2022-12-29T03:29:15;99409.28;;;10.96;100.00
26775;BME280;14362;51.902;7.626;2022-12-29T03:33:22;99410.19;;;11.00;100.00
26775;BME280;14362;51.902;7.626;2022-12-29T03:37:29;99405.50;;;11.04;100.00
26775;BME280;14362;51.902;7.626;2022-12-29T03:41:33;99397.13;;;11.04;100.00
26775;BME280;14362;51.902;7.626;2022-12-29T03:45:35;99411.53;;;11.06;100.00
26775;BME280;14362;51.902;7.626;2022-12-29T03:49:37;99396.16;;;11.12;100.00
26775;BME280;14362;51.902;7.626;2022-12-29T03:53:40;99406.59;;;11.15;100.00
26775;BME280;14362;51.902;7.626;2022-12-29T03:57:41;99419.44;;;11.19;100.00
26775;BME280;14362;51.902;7.626;2022-12-29T04:01:43;99393.56;;;11.19;100.00
26775;BME280;14362;51.902;7.626;2022-12-29T04:05:44;99390.78;;;11.19;100.00
26775;BME280;14362;51.902;7.626;2022-12-29T04:09:47;99395.06;;;11.17;100.00
26775;BME280;14362;51.902;7.626;2022-12-29T04:13:48;99399.78;;;11.13;100.00
26775;BME280;14362;51.902;7.626;2022-12-29T04:17:49;99376.44;;;11.05;100.00
26775;BME280;14362;51.902;7.626;2022-12-29T04:21:51;99391.03;;;10.99;100.00
26775;BME280;14362;51.902;7.626;2022-12-29T04:25:54;99398.06;;;10.93;100.00
26775;BME280;14362;51.902;7.626;2022-12-29T04:29:55;99392.28;;;10.86;100.00
26775;BME280;14362;51.902;7.626;2022-12-29T04:33:57;99398.66;;;10.71;100.00
26775;BME280;14362;51.902;7.626;2022-12-29T04:38:00;99394.03;;;10.63;100.00
26775;BME280;14362;51.902;7.626;2022-12-29T04:42:03;99394.66;;;10.56;100.00
26775;BME280;14362;51.902;7.626;2022-12-29T04:46:04;99382.16;;;10.50;100.00
26775;BME280;14362;51.902;7.626;2022-12-29T04:50:07;99388.81;;;10.46;100.00
26775;BME280;14362;51.902;7.626;2022-12-29T04:54:08;99372.00;;;10.42;100.00
26775;BME280;14362;51.902;7.626;2022-12-29T04:58:11;99368.06;;;10.43;100.00
26775;BME280;14362;51.902;7.626;2022-12-29T05:02:12;99365.59;;;10.42;100.00
26775;BME280;14362;51.902;7.626;2022-12-29T05:06:14;99362.63;;;10.35;100.00
26775;BME280;14362;51.902;7.626;2022-12-29T05:10:15;99372.03;;;10.30;100.00
26775;BME280;14362;51.902;7.626;2022-12-29T05:14:18;99377.28;;;10.32;100.00
26775;BME280;14362;51.902;7.626;2022-12-29T05:18:19;99432.13;;;10.31;100.00
26775;BME280;14362;51.902;7.626;2022-12-29T05:22:21;99413.78;;;10.03;100.00
26775;BME280;14362;51.902;7.626;2022-12-29T05:26:23;99407.13;;;9.80;100.00
26775;BME280;14362;51.902;7.626;2022-12-29T05:30:26;99418.13;;;9.77;100.00
26775;BME280;14362;51.902;7.626;2022-12-29T05:34:27;99407.34;;;9.63;100.00
26775;BME280;14362;51.902;7.626;2022-12-29T05:38:29;99426.53;;;9.53;100.00
26775;BME280;14362;51.902;7.626;2022-12-29T05:42:30;99424.91;;;9.52;100.00
26775;BME280;14362;51.902;7.626;2022-12-29T05:46:33;99450.84;;;9.44;100.00
26775;BME280;14362;51.902;7.626;2022-12-29T05:50:34;99428.13;;;9.42;100.00
26775;BME280;14362;51.902;7.626;2022-12-29T05:54:36;99422.94;;;9.40;100.00
26775;BME280;14362;51.902;7.626;2022-12-29T05:58:37;99435.22;;;9.39;100.00
26775;BME280;14362;51.902;7.626;2022-12-29T06:02:40;99425.56;;;9.37;100.00
26775;BME280;14362;51.902;7.626;2022-12-29T06:06:41;99429.19;;;9.37;100.00
26775;BME280;14362;51.902;7.626;2022-12-29T06:10:43;99427.56;;;9.36;100.00
26775;BME280;14362;51.902;7.626;2022-12-29T06:14:44;99440.41;;;9.29;100.00
26775;BME280;14362;51.902;7.626;2022-12-29T06:18:47;99443.78;;;9.22;100.00
26775;BME280;14362;51.902;7.626;2022-12-29T06:22:49;99457.69;;;9.22;100.00
26775;BME280;14362;51.902;7.626;2022-12-29T06:26:50;99452.81;;;9.19;100.00
26775;BME280;14362;51.902;7.626;2022-12-29T06:30:52;99451.28;;;9.22;100.00
26775;BME280;14362;51.902;7.626;2022-12-29T06:34:54;99457.91;;;9.17;100.00
26775;BME280;14362;51.902;7.626;2022-12-29T06:38:56;99473.63;;;9.13;100.00
26775;BME280;14362;51.902;7.626;2022-12-29T06:42:57;99477.56;;;9.13;100.00
26775;BME280;14362;51.902;7.626;2022-12-29T06:46:59;99479.88;;;9.11;100.00
26775;BME280;14362;51.902;7.626;2022-12-29T06:51:02;99498.06;;;9.08;100.00
26775;BME280;14362;51.902;7.626;2022-12-29T06:55:04;99497.38;;;9.11;100.00
26775;BME280;14362;51.902;7.626;2022-12-29T06:59:05;99477.47;;;9.09;100.00
26775;BME280;14362;51.902;7.626;2022-12-29T07:03:07;99490.06;;;9.07;100.00
26775;BME280;14362;51.902;7.626;2022-12-29T07:07:10;99490.53;;;9.09;100.00
26775;BME280;14362;51.902;7.626;2022-12-29T07:11:11;99495.75;;;9.10;100.00
26775;BME280;14362;51.902;7.626;2022-12-29T07:15:13;99493.78;;;9.11;100.00
26775;BME280;14362;51.902;7.626;2022-12-29T07:19:14;99500.38;;;9.06;100.00
26775;BME280;14362;51.902;7.626;2022-12-29T07:23:17;99494.81;;;9.06;100.00
26775;BME280;14362;51.902;7.626;2022-12-29T07:27:19;99503.63;;;9.08;100.00
26775;BME280;14362;51.902;7.626;2022-12-29T07:31:22;99503.63;;;9.08;100.00
26775;BME280;14362;51.902;7.626;2022-12-29T07:35:23;99520.31;;;9.08;100.00
26775;BME280;14362;51.902;7.626;2022-12-29T07:39:26;99532.94;;;9.06;100.00
26775;BME280;14362;51.902;7.626;2022-12-29T07:43:28;99523.75;;;9.05;100.00
26775;BME280;14362;51.902;7.626;2022-12-29T07:47:29;99535.00;;;9.09;100.00
26775;BME280;14362;51.902;7.626;2022-12-29T07:51:31;99537.09;;;9.12;100.00
26775;BME280;14362;51.902;7.626;2022-12-29T07:55:34;99549.63;;;9.17;100.00
26775;BME280;14362;51.902;7.626;2022-12-29T07:59:35;99544.91;;;9.30;100.00
26775;BME280;14362;51.902;7.626;2022-12-29T08:03:36;99550.69;;;9.25;100.00
26775;BME280;14362;51.902;7.626;2022-12-29T08:07:39;99536.00;;;9.24;100.00
26775;BME280;14362;51.902;7.626;2022-12-29T08:11:42;99547.09;;;9.24;100.00
26775;BME280;14362;51.902;7.626;2022-12-29T08:15:44;99541.78;;;9.31;100.00
26775;BME280;14362;51.902;7.626;2022-12-29T08:19:45;99561.13;;;9.40;100.00
26775;BME280;14362;51.902;7.626;2022-12-29T08:23:47;99556.41;;;9.40;100.00
26775;BME280;14362;51.902;7.626;2022-12-29T08:27:50;99549.69;;;9.41;100.00
26775;BME280;14362;51.902;7.626;2022-12-29T08:31:52;99556.63;;;9.47;100.00
26775;BME280;14362;51.902;7.626;2022-12-29T08:35:58;99553.28;;;9.54;100.00
26775;BME280;14362;51.902;7.626;2022-12-29T08:40:00;99553.28;;;9.54;100.00
26775;BME280;14362;51.902;7.626;2022-12-29T08:44:05;99570.69;;;9.63;100.00
26775;BME280;14362;51.902;7.626;2022-12-29T08:48:06;99568.63;;;9.72;100.00
26775;BME280;14362;51.902;7.626;2022-12-29T08:52:08;99584.75;;;9.78;100.00
26775;BME280;14362;51.902;7.626;2022-12-29T08:56:10;99596.34;;;9.80;100.00
26775;BME280;14362;51.902;7.626;2022-12-29T09:00:14;99593.78;;;9.87;100.00
26775;BME280;14362;51.902;7.626;2022-12-29T09:04:16;99579.53;;;9.89;100.00
26775;BME280;14362;51.902;7.626;2022-12-29T09:08:17;99569.56;;;9.88;100.00
26775;BME280;14362;51.902;7.626;2022-12-29T09:12:19;99568.84;;;9.91;100.00
26775;BME280;14362;51.902;7.626;2022-12-29T09:16:23;99583.78;;;9.86;100.00
26775;BME280;14362;51.902;7.626;2022-12-29T09:20:24;99582.84;;;9.82;100.00
26775;BME280;14362;51.902;7.626;2022-12-29T09:24:26;99586.47;;;9.83;100.00
26775;BME280;14362;51.902;7.626;2022-12-29T09:28:27;99591.44;;;9.89;100.00
26775;BME280;14362;51.902;7.626;2022-12-29T09:32:30;99611.41;;;9.91;100.00
26775;BME280;14362;51.902;7.626;2022-12-29T09:36:31;99581.16;;;10.02;100.00
26775;BME280;14362;51.902;7.626;2022-12-29T09:40:33;99598.56;;;10.11;100.00
26775;BME280;14362;51.902;7.626;2022-12-29T09:44:48;99604.47;;;10.09;100.00
26775;BME280;14362;51.902;7.626;2022-12-29T09:49:00;99608.66;;;10.15;100.00
26775;BME280;14362;51.902;7.626;2022-12-29T09:53:09;99615.03;;;10.27;100.00
26775;BME280;14362;51.902;7.626;2022-12-29T09:57:19;99612.00;;;10.32;100.00
26775;BME280;14362;51.902;7.626;2022-12-29T10:01:27;99620.56;;;10.51;100.00
26775;BME280;14362;51.902;7.626;2022-12-29T10:05:37;99618.16;;;10.50;100.00
26775;BME280;14362;51.902;7.626;2022-12-29T10:09:46;99625.81;;;10.53;100.00
26775;BME280;14362;51.902;7.626;2022-12-29T10:14:03;99609.06;;;10.65;100.00
26775;BME280;14362;51.902;7.626;2022-12-29T10:18:22;99607.28;;;10.72;100.00
26775;BME280;14362;51.902;7.626;2022-12-29T10:22:37;99596.50;;;10.71;100.00
26775;BME280;14362;51.902;7.626;2022-12-29T10:26:41;99614.03;;;10.71;100.00
26775;BME280;14362;51.902;7.626;2022-12-29T10:30:43;99603.81;;;10.75;100.00
26775;BME280;14362;51.902;7.626;2022-12-29T10:34:49;99601.00;;;10.75;100.00
26775;BME280;14362;51.902;7.626;2022-12-29T10:39:04;99609.00;;;10.77;100.00
26775;BME280;14362;51.902;7.626;2022-12-29T10:43:19;99597.00;;;10.88;100.00
26775;BME280;14362;51.902;7.626;2022-12-29T10:47:26;99608.88;;;10.85;100.00
26775;BME280;14362;51.902;7.626;2022-12-29T10:51:30;99603.41;;;10.89;100.00
26775;BME280;14362;51.902;7.626;2022-12-29T10:55:38;99602.59;;;10.88;100.00
26775;BME280;14362;51.902;7.626;2022-12-29T10:59:42;99605.13;;;10.93;100.00
26775;BME280;14362;51.902;7.626;2022-12-29T11:03:50;99598.41;;;10.94;100.00
26775;BME280;14362;51.902;7.626;2022-12-29T11:07:59;99598.94;;;11.00;100.00
26775;BME280;14362;51.902;7.626;2022-12-29T11:12:18;99606.13;;;11.13;100.00
26775;BME280;14362;51.902;7.626;2022-12-29T11:16:27;99595.75;;;11.13;100.00
26775;BME280;14362;51.902;7.626;2022-12-29T11:20:35;99600.97;;;11.15;100.00
26775;BME280;14362;51.902;7.626;2022-12-29T11:24:43;99610.16;;;11.15;100.00
26775;BME280;14362;51.902;7.626;2022-12-29T11:28:48;99601.34;;;11.13;100.00
26775;BME280;14362;51.902;7.626;2022-12-29T11:33:04;99621.41;;;11.18;100.00
26775;BME280;14362;51.902;7.626;2022-12-29T11:37:11;99607.47;;;11.18;100.00
26775;BME280;14362;51.902;7.626;2022-12-29T11:41:19;99618.00;;;11.25;100.00
26775;BME280;14362;51.902;7.626;2022-12-29T11:45:24;99609.50;;;11.33;100.00
26775;BME280;14362;51.902;7.626;2022-12-29T11:49:27;99640.75;;;11.39;100.00
26775;BME280;14362;51.902;7.626;2022-12-29T11:53:36;99640.63;;;11.35;100.00
26775;BME280;14362;51.902;7.626;2022-12-29T11:57:41;99642.66;;;11.23;100.00
26775;BME280;14362;51.902;7.626;2022-12-29T12:01:45;99648.16;;;11.19;100.00
26775;BME280;14362;51.902;7.626;2022-12-29T12:05:49;99658.50;;;11.19;100.00
26775;BME280;14362;51.902;7.626;2022-12-29T12:09:57;99679.06;;;11.15;100.00
26775;BME280;14362;51.902;7.626;2022-12-29T12:14:00;99669.19;;;11.17;100.00
26775;BME280;14362;51.902;7.626;2022-12-29T12:18:08;99681.84;;;11.15;100.00
26775;BME280;14362;51.902;7.626;2022-12-29T12:22:15;99675.47;;;11.14;100.00
26775;BME280;14362;51.902;7.626;2022-12-29T12:26:21;99690.50;;;11.10;100.00
26775;BME280;14362;51.902;7.626;2022-12-29T12:30:36;99705.38;;;11.02;100.00
26775;BME280;14362;51.902;7.626;2022-12-29T12:34:43;99697.47;;;11.04;100.00
26775;BME280;14362;51.902;7.626;2022-12-29T12:38:53;99713.72;;;11.02;100.00
26775;BME280;14362;51.902;7.626;2022-12-29T12:43:05;99703.41;;;11.02;100.00
26775;BME280;14362;51.902;7.626;2022-12-29T12:47:24;99725.22;;;11.12;100.00
26775;BME280;14362;51.902;7.626;2022-12-29T12:51:38;99715.22;;;11.11;100.00
26775;BME280;14362;51.902;7.626;2022-12-29T12:55:53;99726.59;;;11.06;100.00
26775;BME280;14362;51.902;7.626;2022-12-29T13:00:02;99727.66;;;11.02;100.00
26775;BME280;14362;51.902;7.626;2022-12-29T13:09:06;99737.69;;;10.91;100.00
26775;BME280;14362;51.902;7.626;2022-12-29T13:13:32;99738.03;;;10.89;100.00
26775;BME280;14362;51.902;7.626;2022-12-29T13:17:41;99745.81;;;10.84;100.00
26775;BME280;14362;51.902;7.626;2022-12-29T13:21:55;99753.81;;;10.85;100.00
26775;BME280;14362;51.902;7.626;2022-12-29T13:26:06;99751.72;;;10.94;100.00
26775;BME280;14362;51.902;7.626;2022-12-29T13:30:15;99756.59;;;10.85;100.00
26775;BME280;14362;51.902;7.626;2022-12-29T13:34:25;99765.09;;;10.77;100.00
26775;BME280;14362;51.902;7.626;2022-12-29T13:38:34;99768.94;;;10.72;100.00
26775;BME280;14362;51.902;7.626;2022-12-29T13:42:39;99779.03;;;10.77;100.00
26775;BME280;14362;51.902;7.626;2022-12-29T13:46:44;99776.59;;;10.75;100.00
26775;BME280;14362;51.902;7.626;2022-12-29T13:50:51;99795.41;;;10.66;100.00
26775;BME280;14362;51.902;7.626;2022-12-29T13:54:59;99790.75;;;10.58;100.00
26775;BME280;14362;51.902;7.626;2022-12-29T13:59:11;99795.41;;;10.54;100.00
26775;BME280;14362;51.902;7.626;2022-12-29T14:03:40;99792.13;;;10.52;100.00
26775;BME280;14362;51.902;7.626;2022-12-29T14:07:44;99801.91;;;10.46;100.00
26775;BME280;14362;51.902;7.626;2022-12-29T14:11:46;99804.78;;;10.50;100.00
26775;BME280;14362;51.902;7.626;2022-12-29T14:15:53;99811.06;;;10.47;100.00
26775;BME280;14362;51.902;7.626;2022-12-29T14:19:57;99810.84;;;10.52;100.00
26775;BME280;14362;51.902;7.626;2022-12-29T14:24:32;99814.31;;;10.49;100.00
26775;BME280;14362;51.902;7.626;2022-12-29T14:28:40;99815.13;;;10.49;100.00
26775;BME280;14362;51.902;7.626;2022-12-29T14:33:00;99825.00;;;10.47;100.00
26775;BME280;14362;51.902;7.626;2022-12-29T14:37:03;99831.97;;;10.53;100.00
26775;BME280;14362;51.902;7.626;2022-12-29T14:41:23;99834.06;;;10.56;100.00
26775;BME280;14362;51.902;7.626;2022-12-29T14:45:27;99838.72;;;10.64;100.00
26775;BME280;14362;51.902;7.626;2022-12-29T14:49:32;99837.09;;;10.63;100.00
26775;BME280;14362;51.902;7.626;2022-12-29T14:53:42;99844.75;;;10.66;100.00
26775;BME280;14362;51.902;7.626;2022-12-29T14:57:48;99847.28;;;10.59;100.00
26775;BME280;14362;51.902;7.626;2022-12-29T15:01:52;99843.91;;;10.53;100.00
26775;BME280;14362;51.902;7.626;2022-12-29T15:05:59;99848.91;;;10.48;100.00
26775;BME280;14362;51.902;7.626;2022-12-29T15:10:08;99855.63;;;10.47;100.00
26775;BME280;14362;51.902;7.626;2022-12-29T15:14:29;99856.78;;;10.46;100.00
26775;BME280;14362;51.902;7.626;2022-12-29T15:18:32;99854.13;;;10.49;100.00
26775;BME280;14362;51.902;7.626;2022-12-29T15:22:35;99856.69;;;10.42;100.00
26775;BME280;14362;51.902;7.626;2022-12-29T15:26:38;99867.47;;;10.44;100.00
26775;BME280;14362;51.902;7.626;2022-12-29T15:30:51;99875.03;;;10.43;100.00
26775;BME280;14362;51.902;7.626;2022-12-29T15:34:54;99857.47;;;10.43;100.00
26775;BME280;14362;51.902;7.626;2022-12-29T15:38:57;99863.81;;;10.31;100.00
26775;BME280;14362;51.902;7.626;2022-12-29T15:43:16;99875.06;;;10.23;100.00
26775;BME280;14362;51.902;7.626;2022-12-29T15:47:25;99880.16;;;10.21;100.00
26775;BME280;14362;51.902;7.626;2022-12-29T15:51:32;99879.56;;;10.16;100.00
26775;BME280;14362;51.902;7.626;2022-12-29T15:55:38;99890.56;;;10.12;100.00
26775;BME280;14362;51.902;7.626;2022-12-29T15:59:46;99876.78;;;9.95;100.00
26775;BME280;14362;51.902;7.626;2022-12-29T16:03:48;99897.47;;;9.86;100.00
26775;BME280;14362;51.902;7.626;2022-12-29T16:07:53;99909.28;;;9.62;100.00
26775;BME280;14362;51.902;7.626;2022-12-29T16:11:58;99912.69;;;9.39;100.00
26775;BME280;14362;51.902;7.626;2022-12-29T16:16:02;99919.91;;;9.11;100.00
26775;BME280;14362;51.902;7.626;2022-12-29T16:20:16;99913.72;;;9.06;100.00
26775;BME280;14362;51.902;7.626;2022-12-29T16:24:20;99918.47;;;8.97;100.00
26775;BME280;14362;51.902;7.626;2022-12-29T16:28:30;99897.56;;;8.91;100.00
26775;BME280;14362;51.902;7.626;2022-12-29T16:32:45;99900.72;;;8.81;100.00
26775;BME280;14362;51.902;7.626;2022-12-29T16:36:54;99894.03;;;8.82;100.00
26775;BME280;14362;51.902;7.626;2022-12-29T16:40:58;99905.81;;;8.79;100.00
26775;BME280;14362;51.902;7.626;2022-12-29T16:45:33;99918.84;;;8.78;100.00
26775;BME280;14362;51.902;7.626;2022-12-29T16:49:53;99918.41;;;8.76;100.00
26775;BME280;14362;51.902;7.626;2022-12-29T16:53:55;99919.03;;;8.82;100.00
26775;BME280;14362;51.902;7.626;2022-12-29T16:57:58;99913.31;;;8.78;100.00
26775;BME280;14362;51.902;7.626;2022-12-29T17:02:06;99924.59;;;8.82;100.00
26775;BME280;14362;51.902;7.626;2022-12-29T17:06:10;99929.16;;;8.78;100.00
26775;BME280;14362;51.902;7.626;2022-12-29T17:10:16;99924.75;;;8.77;100.00
26775;BME280;14362;51.902;7.626;2022-12-29T17:14:20;99921.81;;;8.82;100.00
26775;BME280;14362;51.902;7.626;2022-12-29T17:18:26;99930.78;;;8.87;100.00
26775;BME280;14362;51.902;7.626;2022-12-29T17:22:28;99936.44;;;8.99;100.00
26775;BME280;14362;51.902;7.626;2022-12-29T17:26:30;99939.44;;;8.94;100.00
26775;BME280;14362;51.902;7.626;2022-12-29T17:30:33;99952.31;;;8.99;100.00
26775;BME280;14362;51.902;7.626;2022-12-29T17:34:36;99959.53;;;8.91;100.00
26775;BME280;14362;51.902;7.626;2022-12-29T17:38:38;99960.69;;;8.90;100.00
26775;BME280;14362;51.902;7.626;2022-12-29T17:42:43;99973.59;;;8.86;100.00
26775;BME280;14362;51.902;7.626;2022-12-29T17:46:46;99975.75;;;8.81;100.00
26775;BME280;14362;51.902;7.626;2022-12-29T17:50:50;99971.81;;;8.82;100.00
26775;BME280;14362;51.902;7.626;2022-12-29T17:54:53;99972.16;;;8.72;100.00
26775;BME280;14362;51.902;7.626;2022-12-29T17:58:55;99980.69;;;8.67;100.00
26775;BME280;14362;51.902;7.626;2022-12-29T18:02:57;99990.97;;;8.66;100.00
26775;BME280;14362;51.902;7.626;2022-12-29T18:06:59;99994.75;;;8.62;100.00
26775;BME280;14362;51.902;7.626;2022-12-29T18:11:03;100002.59;;;8.60;100.00
26775;BME280;14362;51.902;7.626;2022-12-29T18:15:11;100014.69;;;8.47;100.00
26775;BME280;14362;51.902;7.626;2022-12-29T18:19:16;100002.25;;;8.44;100.00
26775;BME280;14362;51.902;7.626;2022-12-29T18:23:21;100010.94;;;8.34;100.00
26775;BME280;14362;51.902;7.626;2022-12-29T18:27:22;100021.06;;;8.30;100.00
26775;BME280;14362;51.902;7.626;2022-12-29T18:31:26;100015.03;;;8.20;100.00
26775;BME280;14362;51.902;7.626;2022-12-29T18:35:31;100011.75;;;8.18;100.00
26775;BME280;14362;51.902;7.626;2022-12-29T18:39:36;100015.97;;;8.15;100.00
26775;BME280;14362;51.902;7.626;2022-12-29T18:43:38;100018.94;;;8.19;100.00
26775;BME280;14362;51.902;7.626;2022-12-29T18:47:39;100034.41;;;8.11;100.00
26775;BME280;14362;51.902;7.626;2022-12-29T18:51:41;100025.28;;;8.11;100.00
26775;BME280;14362;51.902;7.626;2022-12-29T18:55:44;100036.38;;;8.11;100.00
26775;BME280;14362;51.902;7.626;2022-12-29T18:59:45;100033.75;;;8.14;100.00
26775;BME280;14362;51.902;7.626;2022-12-29T19:03:47;100034.41;;;8.11;100.00
26775;BME280;14362;51.902;7.626;2022-12-29T19:07:49;100045.66;;;8.07;100.00
26775;BME280;14362;51.902;7.626;2022-12-29T19:11:52;100052.34;;;7.97;100.00
26775;BME280;14362;51.902;7.626;2022-12-29T19:15:53;100049.56;;;7.97;100.00
26775;BME280;14362;51.902;7.626;2022-12-29T19:19:55;100061.31;;;7.94;100.00
26775;BME280;14362;51.902;7.626;2022-12-29T19:23:57;100067.03;;;7.89;100.00
26775;BME280;14362;51.902;7.626;2022-12-29T19:28:00;100074.66;;;7.84;100.00
26775;BME280;14362;51.902;7.626;2022-12-29T19:32:01;100079.75;;;7.82;100.00
26775;BME280;14362;51.902;7.626;2022-12-29T19:36:03;100077.09;;;7.77;100.00
26775;BME280;14362;51.902;7.626;2022-12-29T19:40:07;100082.50;;;7.73;100.00
26775;BME280;14362;51.902;7.626;2022-12-29T19:44:10;100100.09;;;7.77;100.00
26775;BME280;14362;51.902;7.626;2022-12-29T19:48:13;100102.53;;;7.70;100.00
26775;BME280;14362;51.902;7.626;2022-12-29T19:52:15;100111.66;;;7.71;100.00
26775;BME280;14362;51.902;7.626;2022-12-29T19:56:16;100110.53;;;7.72;100.00
26775;BME280;14362;51.902;7.626;2022-12-29T20:00:19;100125.53;;;7.71;100.00
26775;BME280;14362;51.902;7.626;2022-12-29T20:04:20;100124.56;;;7.75;100.00
26775;BME280;14362;51.902;7.626;2022-12-29T20:08:22;100132.88;;;7.75;100.00
26775;BME280;14362;51.902;7.626;2022-12-29T20:12:25;100127.66;;;7.74;100.00
26775;BME280;14362;51.902;7.626;2022-12-29T20:16:28;100125.41;;;7.76;100.00
26775;BME280;14362;51.902;7.626;2022-12-29T20:20:32;100139.13;;;7.81;100.00
26775;BME280;14362;51.902;7.626;2022-12-29T20:24:34;100132.25;;;7.78;100.00
26775;BME280;14362;51.902;7.626;2022-12-29T20:28:36;100140.56;;;7.78;100.00
26775;BME280;14362;51.902;7.626;2022-12-29T20:32:39;100132.09;;;7.75;100.00
26775;BME280;14362;51.902;7.626;2022-12-29T20:36:43;100135.66;;;7.75;100.00
26775;BME280;14362;51.902;7.626;2022-12-29T20:40:45;100139.28;;;7.76;100.00
26775;BME280;14362;51.902;7.626;2022-12-29T20:44:46;100149.22;;;7.77;100.00
26775;BME280;14362;51.902;7.626;2022-12-29T20:48:51;100149.09;;;7.82;100.00
26775;BME280;14362;51.902;7.626;2022-12-29T20:52:53;100143.03;;;7.80;100.00
26775;BME280;14362;51.902;7.626;2022-12-29T20:56:55;100152.97;;;7.72;100.00
26775;BME280;14362;51.902;7.626;2022-12-29T21:01:00;100161.59;;;7.71;100.00
26775;BME280;14362;51.902;7.626;2022-12-29T21:05:04;100157.31;;;7.65;100.00
26775;BME280;14362;51.902;7.626;2022-12-29T21:09:05;100161.06;;;7.60;100.00
26775;BME280;14362;51.902;7.626;2022-12-29T21:13:07;100175.41;;;7.62;100.00
26775;BME280;14362;51.902;7.626;2022-12-29T21:17:08;100178.06;;;7.67;100.00
26775;BME280;14362;51.902;7.626;2022-12-29T21:21:15;100181.84;;;7.71;100.00
26775;BME280;14362;51.902;7.626;2022-12-29T21:25:17;100175.31;;;7.76;100.00
26775;BME280;14362;51.902;7.626;2022-12-29T21:29:18;100171.28;;;7.82;100.00
26775;BME280;14362;51.902;7.626;2022-12-29T21:33:20;100176.47;;;7.75;100.00